createdAt,value
2023-04-15T00:02:10.000Z,6.3
2023-04-15T00:05:44.000Z,5.2
2023-04-15T00:09:16.000Z,5
2023-04-15T00:12:49.000Z,6.1
2023-04-15T00:16:21.000Z,4.8
2023-04-15T00:19:13.000Z,5.1
2023-04-15T00:22:45.000Z,5.8
2023-04-15T00:26:18.000Z,8.3
2023-04-15T00:29:50.000Z,9.5
2023-04-15T00:33:23.000Z,6.3
2023-04-15T00:36:56.000Z,7.3
2023-04-15T00:40:29.000Z,6.8
2023-04-15T00:44:01.000Z,5.2
2023-04-15T00:47:34.000Z,7.1
2023-04-15T00:51:06.000Z,6.4
2023-04-15T00:54:39.000Z,4.9
2023-04-15T00:57:30.000Z,6.3
2023-04-15T01:01:03.000Z,5.4
2023-04-15T01:04:36.000Z,8.1
2023-04-15T01:08:09.000Z,6
2023-04-15T01:11:41.000Z,6.3
2023-04-15T01:15:14.000Z,4.8
2023-04-15T01:18:46.000Z,5.3
2023-04-15T01:22:19.000Z,5.8
2023-04-15T01:25:52.000Z,7
2023-04-15T01:29:25.000Z,5.8
2023-04-15T01:32:58.000Z,6.3
2023-04-15T01:35:49.000Z,5
2023-04-15T01:39:21.000Z,7.1
2023-04-15T01:42:54.000Z,5.6
2023-04-15T01:46:27.000Z,6.5
2023-04-15T01:49:59.000Z,7
2023-04-15T01:53:32.000Z,5.7
2023-04-15T01:57:05.000Z,5.6
2023-04-15T02:00:37.000Z,5.5
2023-04-15T02:04:10.000Z,6.7
2023-04-15T02:07:42.000Z,4.4
2023-04-15T02:11:15.000Z,5.9
2023-04-15T02:14:06.000Z,6.5
2023-04-15T02:17:39.000Z,6.5
2023-04-15T02:21:12.000Z,6.6
2023-04-15T02:24:44.000Z,5.8
2023-04-15T02:28:17.000Z,7
2023-04-15T02:31:49.000Z,5.6
2023-04-15T02:35:22.000Z,6.1
2023-04-15T02:38:55.000Z,7.6
2023-04-15T02:42:28.000Z,7.5
2023-04-15T02:46:00.000Z,6.1
2023-04-15T02:49:33.000Z,5.4
2023-04-15T02:52:25.000Z,6.3
2023-04-15T02:55:57.000Z,4.5
2023-04-15T02:59:30.000Z,5.2
2023-04-15T03:03:02.000Z,5.1
2023-04-15T03:06:35.000Z,6
2023-04-15T03:10:08.000Z,5.9
2023-04-15T03:13:41.000Z,6.1
2023-04-15T03:17:13.000Z,5.3
2023-04-15T03:20:46.000Z,7.8
2023-04-15T03:24:19.000Z,5.8
2023-04-15T03:27:51.000Z,6.1
2023-04-15T03:30:43.000Z,7.3
2023-04-15T03:34:15.000Z,8.1
2023-04-15T03:37:48.000Z,6.2
2023-04-15T03:41:21.000Z,7.1
2023-04-15T03:44:53.000Z,6.8
2023-04-15T03:48:26.000Z,5.7
2023-04-15T03:51:58.000Z,6.2
2023-04-15T03:55:31.000Z,5
2023-04-15T03:59:04.000Z,8.4
2023-04-15T04:02:36.000Z,6.4
2023-04-15T04:06:09.000Z,5.6
2023-04-15T04:09:01.000Z,6.5
2023-04-15T04:12:33.000Z,5.6
2023-04-15T04:16:06.000Z,5.3
2023-04-15T04:19:39.000Z,6.7
2023-04-15T04:23:12.000Z,7.9
2023-04-15T04:26:44.000Z,10.2
2023-04-15T04:30:17.000Z,9.6
2023-04-15T04:33:50.000Z,6.7
2023-04-15T04:37:22.000Z,6.7
2023-04-15T04:40:55.000Z,8.9
2023-04-15T04:44:27.000Z,8.1
2023-04-15T04:47:18.000Z,8.7
2023-04-15T04:50:51.000Z,7.2
2023-04-15T04:54:24.000Z,8.9
2023-04-15T04:57:57.000Z,12.5
2023-04-15T05:01:29.000Z,12.3
2023-04-15T05:05:02.000Z,12.9
2023-04-15T05:08:35.000Z,8.6
2023-04-15T05:12:07.000Z,11.8
2023-04-15T05:15:40.000Z,10.8
2023-04-15T05:19:13.000Z,8.5
2023-04-15T05:22:45.000Z,13.4
2023-04-15T05:25:37.000Z,16.5
2023-04-15T05:29:09.000Z,15.8
2023-04-15T05:32:42.000Z,19.6
2023-04-15T05:36:14.000Z,17.7
2023-04-15T05:39:47.000Z,17.6
2023-04-15T05:43:20.000Z,20.2
2023-04-15T05:46:52.000Z,24.9
2023-04-15T05:50:25.000Z,32.7
2023-04-15T05:53:58.000Z,28.7
2023-04-15T05:57:30.000Z,27
2023-04-15T06:01:03.000Z,25.6
2023-04-15T06:03:54.000Z,25.8
2023-04-15T06:07:27.000Z,25.2
2023-04-15T06:11:00.000Z,25.1
2023-04-15T06:14:32.000Z,28
2023-04-15T06:18:05.000Z,29.9
2023-04-15T06:21:38.000Z,31
2023-04-15T06:25:11.000Z,27.4
2023-04-15T06:28:43.000Z,31.2
2023-04-15T06:32:16.000Z,28.2
2023-04-15T06:35:49.000Z,30.3
2023-04-15T06:39:21.000Z,29.8
2023-04-15T06:42:13.000Z,29.9
2023-04-15T06:45:45.000Z,32.1
2023-04-15T06:49:18.000Z,30.8
2023-04-15T06:52:50.000Z,28
2023-04-15T06:56:23.000Z,27.5
2023-04-15T06:59:56.000Z,27.1
2023-04-15T07:03:28.000Z,24.7
2023-04-15T07:07:01.000Z,25.2
2023-04-15T07:10:34.000Z,24.2
2023-04-15T07:14:06.000Z,24.2
2023-04-15T07:17:39.000Z,21.2
2023-04-15T07:20:30.000Z,20.7
2023-04-15T07:24:03.000Z,18.8
2023-04-15T07:27:35.000Z,18.1
2023-04-15T07:31:08.000Z,18
2023-04-15T07:34:41.000Z,17
2023-04-15T07:38:13.000Z,18
2023-04-15T07:41:46.000Z,16.8
2023-04-15T07:45:19.000Z,18.8
2023-04-15T07:48:51.000Z,18.5
2023-04-15T07:52:24.000Z,15.4
2023-04-15T07:55:57.000Z,16.1
2023-04-15T07:58:48.000Z,14.6
2023-04-15T08:02:20.000Z,14.8
2023-04-15T08:05:54.000Z,18.6
2023-04-15T08:09:26.000Z,15.7
2023-04-15T08:12:59.000Z,14.1
2023-04-15T08:16:32.000Z,16.9
2023-04-15T08:20:04.000Z,17.3
2023-04-15T08:23:37.000Z,19.7
2023-04-15T08:27:09.000Z,16.3
2023-04-15T08:30:42.000Z,14.9
2023-04-15T08:34:15.000Z,17.8
2023-04-15T08:37:06.000Z,17.5
2023-04-15T08:40:38.000Z,17.7
2023-04-15T08:44:11.000Z,17.1
2023-04-15T08:47:43.000Z,16.9
2023-04-15T08:51:16.000Z,14.9
2023-04-15T08:54:50.000Z,17.6
2023-04-15T08:58:22.000Z,13.9
2023-04-15T09:01:55.000Z,15.6
2023-04-15T09:05:28.000Z,15.4
2023-04-15T09:09:00.000Z,18.1
2023-04-15T09:12:33.000Z,14.7
2023-04-15T09:15:24.000Z,13.5
2023-04-15T09:18:57.000Z,12.5
2023-04-15T09:22:29.000Z,14.2
2023-04-15T09:26:02.000Z,14
2023-04-15T09:29:35.000Z,15.1
2023-04-15T09:33:08.000Z,15.4
2023-04-15T09:36:40.000Z,16.1
2023-04-15T09:40:16.000Z,15.5
2023-04-15T09:43:48.000Z,16.3
2023-04-15T09:47:21.000Z,17.1
2023-04-15T09:50:54.000Z,18
2023-04-15T09:53:45.000Z,16.7
2023-04-15T09:57:18.000Z,15.6
2023-04-15T10:00:50.000Z,14.8
2023-04-15T10:04:23.000Z,14.6
2023-04-15T10:07:56.000Z,14.1
2023-04-15T10:11:28.000Z,14.1
2023-04-15T10:15:01.000Z,12.7
2023-04-15T10:18:34.000Z,16.5
2023-04-15T10:22:06.000Z,15.2
2023-04-15T10:25:39.000Z,14.8
2023-04-15T10:29:12.000Z,16.2
2023-04-15T10:32:03.000Z,15.1
2023-04-15T10:35:35.000Z,14.4
2023-04-15T10:39:08.000Z,14.1
2023-04-15T10:42:40.000Z,12.9
2023-04-15T10:46:13.000Z,13.1
2023-04-15T10:49:46.000Z,13.5
2023-04-15T10:53:18.000Z,12.2
2023-04-15T10:56:51.000Z,13.3
2023-04-15T11:00:24.000Z,12.1
2023-04-15T11:03:56.000Z,9.9
2023-04-15T11:07:30.000Z,14
2023-04-15T11:10:21.000Z,9.6
2023-04-15T11:13:53.000Z,9.9
2023-04-15T11:17:26.000Z,9.1
2023-04-15T11:20:59.000Z,9.6
2023-04-15T11:24:32.000Z,8.4
2023-04-15T11:28:04.000Z,9.9
2023-04-15T11:31:37.000Z,8.1
2023-04-15T11:35:10.000Z,8.5
2023-04-15T11:38:43.000Z,7.6
2023-04-15T11:42:15.000Z,6.2
2023-04-15T11:45:48.000Z,8.1
2023-04-15T11:48:39.000Z,6.9
2023-04-15T11:52:12.000Z,7.3
2023-04-15T11:55:45.000Z,6.9
2023-04-15T11:59:18.000Z,6.2
2023-04-15T12:03:00.000Z,5.8
2023-04-15T12:06:34.000Z,5.8
2023-04-15T12:10:06.000Z,6
2023-04-15T12:13:39.000Z,6.5
2023-04-15T12:17:12.000Z,6.3
2023-04-15T12:20:44.000Z,5.5
2023-04-15T12:24:17.000Z,5.9
2023-04-15T12:27:08.000Z,6.1
2023-04-15T12:30:41.000Z,8
2023-04-15T12:34:13.000Z,6.6
2023-04-15T12:37:46.000Z,6.2
2023-04-15T12:41:19.000Z,6
2023-04-15T12:44:51.000Z,5.9
2023-04-15T12:48:24.000Z,6.1
2023-04-15T12:51:57.000Z,6.2
2023-04-15T12:55:30.000Z,5.3
2023-04-15T12:59:06.000Z,6.3
2023-04-15T13:02:38.000Z,6.4
2023-04-15T13:05:30.000Z,6
2023-04-15T13:09:02.000Z,6.5
2023-04-15T13:12:35.000Z,7.1
2023-04-15T13:16:08.000Z,5.9
2023-04-15T13:19:41.000Z,5.5
2023-04-15T13:23:13.000Z,6
2023-04-15T13:26:46.000Z,5.6
2023-04-15T13:30:19.000Z,4.1
2023-04-15T13:33:51.000Z,4.5
2023-04-15T13:37:24.000Z,4.8
2023-04-15T13:40:57.000Z,5.7
2023-04-15T13:43:48.000Z,5
2023-04-15T13:47:21.000Z,5.3
2023-04-15T13:50:53.000Z,5.2
2023-04-15T13:54:26.000Z,4.5
2023-04-15T13:58:03.000Z,4.1
2023-04-15T14:01:36.000Z,3.7
2023-04-15T14:05:09.000Z,5.1
2023-04-15T14:08:41.000Z,4.6
2023-04-15T14:12:14.000Z,4.7
2023-04-15T14:15:46.000Z,4.1
2023-04-15T14:19:19.000Z,4.6
2023-04-15T14:22:10.000Z,3.3
2023-04-15T14:25:43.000Z,3.8
2023-04-15T14:29:15.000Z,4.6
2023-04-15T14:32:48.000Z,3.8
2023-04-15T14:36:21.000Z,3.4
2023-04-15T14:39:54.000Z,3.8
2023-04-15T14:43:26.000Z,3.6
2023-04-15T14:46:59.000Z,2.9
2023-04-15T14:50:32.000Z,3.5
2023-04-15T14:54:04.000Z,3.2
2023-04-15T14:57:37.000Z,3.1
2023-04-15T15:00:28.000Z,3
2023-04-15T15:04:01.000Z,2.8
2023-04-15T15:07:34.000Z,3.6
2023-04-15T15:11:07.000Z,2.9
2023-04-15T15:14:39.000Z,3
2023-04-15T15:18:13.000Z,2.8
2023-04-15T15:21:46.000Z,6.3
2023-04-15T15:25:18.000Z,3
2023-04-15T15:28:51.000Z,3.5
2023-04-15T15:32:24.000Z,4.1
2023-04-15T15:35:56.000Z,2.6
2023-04-15T15:38:48.000Z,5.5
2023-04-15T15:42:20.000Z,3.7
2023-04-15T15:45:53.000Z,3.8
2023-04-15T15:49:25.000Z,3.7
2023-04-15T15:52:58.000Z,3.2
2023-04-15T15:56:31.000Z,2.5
2023-04-15T16:00:04.000Z,2.2
2023-04-15T16:03:38.000Z,2.5
2023-04-15T16:07:11.000Z,2
2023-04-15T16:10:43.000Z,3
2023-04-15T16:14:16.000Z,3.5
2023-04-15T16:17:07.000Z,4.5
2023-04-15T16:20:40.000Z,5.2
2023-04-15T16:24:12.000Z,3.1
2023-04-15T16:27:45.000Z,3
2023-04-15T16:31:33.000Z,2.8
2023-04-15T16:35:06.000Z,3.4
2023-04-15T16:38:39.000Z,2.9
2023-04-15T16:42:12.000Z,3.3
2023-04-15T16:45:44.000Z,5.4
2023-04-15T16:49:17.000Z,4.8
2023-04-15T16:52:50.000Z,4.3
2023-04-15T16:55:41.000Z,6.4
2023-04-15T16:59:14.000Z,6.1
2023-04-15T17:02:46.000Z,5.7
2023-04-15T17:06:19.000Z,5.6
2023-04-15T17:09:52.000Z,4.5
2023-04-15T17:13:24.000Z,4.8
2023-04-15T17:16:57.000Z,4.1
2023-04-15T17:20:30.000Z,4.6
2023-04-15T17:24:02.000Z,4.4
2023-04-15T17:27:35.000Z,4.8
2023-04-15T17:31:07.000Z,3.6
2023-04-15T17:33:59.000Z,4
2023-04-15T17:37:35.000Z,3.6
2023-04-15T17:41:08.000Z,4.6
2023-04-15T17:44:41.000Z,4.7
2023-04-15T17:48:13.000Z,4.5
2023-04-15T17:51:46.000Z,3.6
2023-04-15T17:55:19.000Z,5.2
2023-04-15T17:58:51.000Z,4.5
2023-04-15T18:02:24.000Z,4.3
2023-04-15T18:06:00.000Z,4.8
2023-04-15T18:09:33.000Z,5.2
2023-04-15T18:12:24.000Z,6
2023-04-15T18:15:57.000Z,6.5
2023-04-15T18:19:30.000Z,8.1
2023-04-15T18:23:02.000Z,7.2
2023-04-15T18:26:35.000Z,8.4
2023-04-15T18:30:07.000Z,9.7
2023-04-15T18:33:40.000Z,9.3
2023-04-15T18:37:13.000Z,9.5
2023-04-15T18:40:46.000Z,10
2023-04-15T18:44:18.000Z,10.5
2023-04-15T18:47:51.000Z,10.4
2023-04-15T18:50:42.000Z,10.9
2023-04-15T18:54:15.000Z,11
2023-04-15T18:57:47.000Z,11.4
2023-04-15T19:01:31.000Z,12.6
2023-04-15T19:05:04.000Z,11.7
2023-04-15T19:08:37.000Z,12.4
2023-04-15T19:12:09.000Z,14
2023-04-15T19:15:42.000Z,14.1
2023-04-15T19:19:15.000Z,11.9
2023-04-15T19:22:47.000Z,16.3
2023-04-15T19:26:20.000Z,15.8
2023-04-15T19:29:11.000Z,17.8
2023-04-15T19:32:43.000Z,19.6
2023-04-15T19:36:16.000Z,18.2
2023-04-15T19:39:49.000Z,20
2023-04-15T19:43:21.000Z,20.3
2023-04-15T19:46:54.000Z,19.2
2023-04-15T19:50:27.000Z,19.8
2023-04-15T19:53:59.000Z,21
2023-04-15T19:57:32.000Z,19
2023-04-15T20:01:05.000Z,20.9
2023-04-15T20:04:37.000Z,18
2023-04-15T20:07:29.000Z,21.1
2023-04-15T20:11:01.000Z,21.1
2023-04-15T20:14:51.000Z,21
2023-04-15T20:18:24.000Z,21.8
2023-04-15T20:21:56.000Z,20.4
2023-04-15T20:25:29.000Z,20.6
2023-04-15T20:29:02.000Z,21.9
2023-04-15T20:32:34.000Z,20.8
2023-04-15T20:36:07.000Z,21
2023-04-15T20:39:40.000Z,21.8
2023-04-15T20:43:12.000Z,22.3
2023-04-15T20:46:03.000Z,22.6
2023-04-15T20:49:45.000Z,21.6
2023-04-15T20:53:18.000Z,23
2023-04-15T20:56:51.000Z,24.1
2023-04-15T21:00:23.000Z,21.4
2023-04-15T21:03:56.000Z,22
2023-04-15T21:07:29.000Z,22.3
2023-04-15T21:11:02.000Z,23.2
2023-04-15T21:14:34.000Z,21.8
2023-04-15T21:18:07.000Z,22.6
2023-04-15T21:21:40.000Z,25.3
2023-04-15T21:24:31.000Z,22.9
2023-04-15T21:28:04.000Z,20.3
2023-04-15T21:31:36.000Z,23.4
2023-04-15T21:35:09.000Z,22.7
2023-04-15T21:38:42.000Z,24.7
2023-04-15T21:42:14.000Z,26
2023-04-15T21:45:47.000Z,20.1
2023-04-15T21:50:06.000Z,25.3
2023-04-15T21:53:38.000Z,22.5
2023-04-15T21:57:11.000Z,23
2023-04-15T22:00:43.000Z,24
2023-04-15T22:03:35.000Z,24.4
2023-04-15T22:07:07.000Z,26
2023-04-15T22:10:55.000Z,24.2
2023-04-15T22:14:27.000Z,27.1
2023-04-15T22:18:00.000Z,26.7
2023-04-15T22:21:33.000Z,28.1
2023-04-15T22:25:05.000Z,27.5
2023-04-15T22:28:38.000Z,27.8
2023-04-15T22:32:11.000Z,28.2
2023-04-15T22:35:43.000Z,28.8
2023-04-15T22:39:16.000Z,28.8
2023-04-15T22:42:07.000Z,27.7
2023-04-15T22:45:40.000Z,30.1
2023-04-15T22:49:12.000Z,30.9
2023-04-15T22:52:45.000Z,33.6
2023-04-15T22:56:17.000Z,36.1
2023-04-15T22:59:50.000Z,34.4
2023-04-15T23:03:23.000Z,37.5
2023-04-15T23:06:56.000Z,40.9
2023-04-15T23:10:29.000Z,42.7
2023-04-15T23:14:01.000Z,38.9
2023-04-15T23:17:34.000Z,37.3
2023-04-15T23:20:25.000Z,39.6
2023-04-15T23:23:58.000Z,42
2023-04-15T23:27:30.000Z,43.6
2023-04-15T23:31:03.000Z,47.8
2023-04-15T23:34:36.000Z,46.6
2023-04-15T23:38:08.000Z,48.7
2023-04-15T23:41:41.000Z,49.6
2023-04-15T23:45:14.000Z,44.6
2023-04-15T23:48:46.000Z,48.4
2023-04-15T23:52:19.000Z,47.9
2023-04-15T23:55:52.000Z,46.2
2023-04-15T23:58:43.000Z,46.3
